createdAt,value
2023-05-25T00:00:01.162Z,13.7
2023-05-25T00:10:01.151Z,13.3
2023-05-25T00:20:01.130Z,13.3
2023-05-25T00:30:01.251Z,13.1
2023-05-25T00:40:01.121Z,13.0
2023-05-25T00:50:01.240Z,13.1
2023-05-25T01:00:01.173Z,13.0
2023-05-25T01:10:01.171Z,13.1
2023-05-25T01:20:10.240Z,13.2
2023-05-25T01:30:01.153Z,12.7
2023-05-25T01:40:01.115Z,12.9
2023-05-25T01:50:01.213Z,12.6
2023-05-25T02:00:01.145Z,12.5
2023-05-25T02:10:01.153Z,12.1
2023-05-25T02:20:01.143Z,12.0
2023-05-25T02:30:01.201Z,12.2
2023-05-25T02:40:01.145Z,11.7
2023-05-25T02:50:01.183Z,12.2
2023-05-25T03:00:01.127Z,12.0
2023-05-25T03:20:01.186Z,12.7
2023-05-25T03:30:01.159Z,12.5
2023-05-25T03:40:01.131Z,12.6
2023-05-25T03:50:01.157Z,12.3
2023-05-25T04:00:01.170Z,12.8
2023-05-25T04:10:01.179Z,12.6
2023-05-25T04:20:01.182Z,12.6
2023-05-25T04:30:01.188Z,13.0
2023-05-25T04:40:01.183Z,13.1
2023-05-25T04:50:01.192Z,13.3
2023-05-25T05:00:01.183Z,13.6
2023-05-25T05:10:01.276Z,13.7
2023-05-25T05:20:01.282Z,14.4
2023-05-25T05:30:01.222Z,14.2
2023-05-25T05:40:01.177Z,14.8
2023-05-25T05:50:01.181Z,14.7
2023-05-25T06:00:01.229Z,15.4
2023-05-25T06:10:01.174Z,16.1
2023-05-25T06:20:01.276Z,16.2
2023-05-25T06:30:01.196Z,16.6
2023-05-25T06:40:01.162Z,17.3
2023-05-25T06:50:01.294Z,17.4
2023-05-25T07:00:01.245Z,17.7
2023-05-25T07:10:01.178Z,18.3
2023-05-25T07:20:01.199Z,17.6
2023-05-25T07:30:01.253Z,18.7
2023-05-25T07:40:01.166Z,18.1
2023-05-25T07:50:01.292Z,18.7
2023-05-25T08:00:01.699Z,18.4
2023-05-25T08:10:01.186Z,19.8
2023-05-25T08:20:01.246Z,19.5
2023-05-25T08:30:01.115Z,18.8
2023-05-25T08:40:01.191Z,18.6
2023-05-25T08:50:01.221Z,19.0
2023-05-25T09:10:00.516Z,19.5
2023-05-25T09:20:01.218Z,19.9
2023-05-25T09:30:01.162Z,20.4
2023-05-25T09:40:01.217Z,20.5
2023-05-25T09:50:01.203Z,20.4
2023-05-25T10:00:01.196Z,20.0
2023-05-25T10:10:01.164Z,19.6
2023-05-25T10:20:01.329Z,19.8
2023-05-25T10:30:01.217Z,20.6
2023-05-25T10:40:01.230Z,21.5
2023-05-25T10:50:01.161Z,22.4
2023-05-25T11:00:01.269Z,22.6
2023-05-25T11:10:01.102Z,21.7
2023-05-25T11:20:01.216Z,22.6
2023-05-25T11:30:01.185Z,23.0
2023-05-25T11:40:01.157Z,23.2
2023-05-25T11:50:01.740Z,22.2
2023-05-25T12:00:01.171Z,22.0
2023-05-25T12:10:01.099Z,23.8
2023-05-25T12:20:01.240Z,22.6
2023-05-25T12:30:00.535Z,22.5
2023-05-25T12:40:01.955Z,21.1
2023-05-25T12:50:01.183Z,20.9
2023-05-25T13:00:01.167Z,22.0
2023-05-25T13:10:01.141Z,21.0
2023-05-25T13:20:01.284Z,21.8
2023-05-25T13:30:01.103Z,22.0
2023-05-25T13:40:01.201Z,21.9
2023-05-25T13:50:01.193Z,22.4
2023-05-25T14:00:01.152Z,24.7
2023-05-25T14:10:01.121Z,26.0
2023-05-25T14:20:01.310Z,26.6
2023-05-25T14:30:01.219Z,26.5
2023-05-25T14:40:01.370Z,26.6
2023-05-25T14:50:01.242Z,25.8
2023-05-25T15:00:01.321Z,26.6
2023-05-25T15:10:01.192Z,24.4
2023-05-25T15:20:01.321Z,22.5
2023-05-25T15:30:01.152Z,25.3
2023-05-25T15:40:01.233Z,25.2
2023-05-25T15:50:01.224Z,24.9
2023-05-25T16:00:01.204Z,25.4
2023-05-25T16:10:01.238Z,25.4
2023-05-25T16:20:01.226Z,24.6
2023-05-25T16:30:00.560Z,26.6
2023-05-25T16:40:01.198Z,25.3
2023-05-25T16:50:01.118Z,24.5
2023-05-25T17:00:01.141Z,24.0
2023-05-25T17:10:00.526Z,24.3
2023-05-25T17:20:01.251Z,23.4
2023-05-25T17:30:01.163Z,21.9
2023-05-25T17:40:01.260Z,20.9
2023-05-25T17:50:01.313Z,20.9
2023-05-25T18:00:01.147Z,20.1
2023-05-25T18:10:01.093Z,19.9
2023-05-25T18:20:01.381Z,19.8
2023-05-25T18:30:01.185Z,19.7
2023-05-25T18:40:01.239Z,19.5
2023-05-25T18:50:01.191Z,19.4
2023-05-25T19:00:01.241Z,19.6
2023-05-25T19:10:01.166Z,19.0
2023-05-25T19:20:01.195Z,19.0
2023-05-25T19:30:01.159Z,19.0
2023-05-25T19:40:01.166Z,19.0
2023-05-25T19:50:01.168Z,18.8
2023-05-25T20:10:01.184Z,18.7
2023-05-25T20:20:01.244Z,18.1
2023-05-25T20:30:01.172Z,17.9
2023-05-25T20:40:01.304Z,18.0
2023-05-25T21:00:01.181Z,17.5
2023-05-25T21:10:01.140Z,17.5
2023-05-25T21:20:01.244Z,17.2
2023-05-25T21:30:01.160Z,17.2
2023-05-25T21:40:01.173Z,17.0
2023-05-25T21:50:01.167Z,16.8
2023-05-25T22:00:01.275Z,16.7
2023-05-25T22:10:01.231Z,16.5
2023-05-25T22:20:07.680Z,16.7
2023-05-25T22:30:01.229Z,16.6
2023-05-25T22:40:01.253Z,16.4
2023-05-25T22:50:01.232Z,16.6
2023-05-25T23:00:01.227Z,16.5
2023-05-25T23:10:01.120Z,16.1
2023-05-25T23:20:01.250Z,16.3
2023-05-25T23:30:01.204Z,15.9
2023-05-25T23:40:01.166Z,15.8
2023-05-25T23:50:01.196Z,15.6
